LGAV/ATH METAR and TAF weather

Enter ICAO airport designator
Station Type Date Time Source
LGAV METAR 2019/04/20 18:20 UTC NOAA

LGAV 201820Z VRB01KT 9999 FEW030 10/04 Q1027 NOSIG


Station Type Date Time Source
LGAV Decoded METAR 2019/04/20 18:20 UTC NOAA

Athens Eleftherios Venizelos International Airport, Greece (LGAV) 37-56N 023-56E
Apr 20, 2019 - 02:20 PM EDT / 2019.04.20 1820 UTC
Wind: Variable at 1 MPH (1 KT):0
Visibility: greater than 7 mile(s):0
Sky conditions: mostly clear
Temperature: 50 F (10 C)
Dew Point: 39 F (4 C)
Relative Humidity: 66%
Pressure (altimeter): 30.33 in. Hg (1027 hPa)
ob: LGAV 201820Z VRB01KT 9999 FEW030 10/04 Q1027 NOSIG
cycle: 18

Station Type Date Time Source
LGAV TAF 2019/04/20 18:12 UTC NOAA

TAF TAF LGAV 201700Z 2018/2118 03015KT 9999 FEW025 SCT070
BECMG 2020/2022 29008KT
BECMG 2106/2108 05010KT

Example: see airport list